Time;durP1;ratioP1;P1;durP2;ratioP2;P2;SDS_P1;SDS_P2;PMS_P1;PMS_P2;Temp;Humidity;BMP_temperature;BMP_pressure;BME280_temperature;BME280_humidity;BME280_pressure;Samples;Min_cycle;Max_cycle;Signal;HPM_P1;HPM_P2
2022/05/07 00:01:17;;;;;;;14.55;9.10;;;16.50;96.80;;;;;;4742252;30;20136;-63
2022/05/07 00:03:45;;;;;;;13.13;9.77;;;16.50;97.00;;;;;;4757767;30;20091;-63
2022/05/07 00:06:12;;;;;;;14.70;9.90;;;16.50;97.10;;;;;;4741593;30;20044;-62
2022/05/07 00:08:40;;;;;;;13.68;9.02;;;16.50;98.10;;;;;;4755764;30;20053;-63
2022/05/07 00:11:07;;;;;;;15.00;9.52;;;16.50;97.60;;;;;;4757036;30;20056;-63
2022/05/07 00:13:34;;;;;;;16.42;9.70;;;16.50;97.50;;;;;;4759515;30;20062;-63
2022/05/07 00:18:47;;;;;;;15.07;9.93;;;16.30;97.50;;;;;;4758662;30;20052;-63
2022/05/07 00:21:14;;;;;;;15.48;9.75;;;16.40;97.60;;;;;;4758983;30;20055;-63
2022/05/07 00:23:41;;;;;;;15.00;9.85;;;16.40;97.50;;;;;;4756537;30;20051;-62
2022/05/07 00:26:08;;;;;;;15.77;9.88;;;16.40;97.10;;;;;;4753866;30;20063;-63
2022/05/07 00:28:36;;;;;;;14.60;9.10;;;16.30;97.20;;;;;;4747083;30;20054;-63
2022/05/07 00:31:03;;;;;;;12.27;9.00;;;16.30;97.00;;;;;;4757420;30;20055;-63
2022/05/07 00:33:30;;;;;;;10.73;8.00;;;16.30;97.10;;;;;;4754734;30;20055;-62
2022/05/07 00:35:57;;;;;;;11.77;8.30;;;16.40;97.30;;;;;;4756647;30;20413;-62
2022/05/07 00:38:24;;;;;;;12.75;7.72;;;16.40;96.90;;;;;;4741365;30;20138;-64
2022/05/07 00:40:52;;;;;;;10.98;6.88;;;16.50;96.60;;;;;;4757412;30;21008;-63
2022/05/07 00:43:19;;;;;;;10.60;7.13;;;16.40;96.20;;;;;;4759360;30;20446;-63
2022/05/07 00:45:46;;;;;;;11.95;7.80;;;16.50;95.60;;;;;;4742469;30;20277;-63
2022/05/07 00:48:15;;;;;;;13.20;7.63;;;16.50;96.00;;;;;;4721892;30;20107;-63
2022/05/07 00:53:32;;;;;;;11.65;7.15;;;16.50;97.00;;;;;;4756779;30;20500;-62
2022/05/07 00:56:02;;;;;;;12.18;8.02;;;16.50;96.90;;;;;;4756735;30;20035;-62
2022/05/07 00:58:29;;;;;;;13.85;7.78;;;16.50;96.80;;;;;;4756169;30;20142;-63
2022/05/07 01:00:56;;;;;;;12.48;7.90;;;16.50;96.50;;;;;;4742208;30;21148;-63
2022/05/07 01:03:23;;;;;;;11.35;7.47;;;16.50;97.10;;;;;;4741006;30;20133;-63
2022/05/07 01:05:50;;;;;;;12.13;7.88;;;16.50;96.40;;;;;;4757112;30;20054;-63
2022/05/07 01:08:20;;;;;;;11.20;7.30;;;16.50;96.10;;;;;;4752902;30;20044;-62
2022/05/07 01:10:48;;;;;;;12.43;7.63;;;16.40;96.70;;;;;;4756015;30;20393;-62
2022/05/07 01:13:21;;;;;;;11.93;8.27;;;16.50;96.20;;;;;;4725496;30;20064;-62
2022/05/07 01:15:56;;;;;;;14.82;8.10;;;16.40;96.70;;;;;;4741657;30;20067;-62
2022/05/07 01:18:27;;;;;;;12.23;8.20;;;16.40;96.20;;;;;;4741157;30;20056;-62
2022/05/07 01:20:55;;;;;;;12.52;8.30;;;16.40;96.40;;;;;;4756850;30;20055;-62
2022/05/07 01:23:24;;;;;;;12.77;7.60;;;16.40;97.20;;;;;;4757976;30;20040;-62
2022/05/07 01:25:57;;;;;;;11.20;7.28;;;16.40;96.70;;;;;;4755792;30;20082;-63
2022/05/07 01:28:26;;;;;;;12.00;7.70;;;16.40;96.90;;;;;;4752537;30;20113;-62
2022/05/07 01:30:54;;;;;;;12.23;7.57;;;16.30;97.30;;;;;;4742398;30;20052;-62
2022/05/07 01:33:21;;;;;;;10.80;7.70;;;16.30;97.40;;;;;;4742168;30;20388;-62
2022/05/07 01:35:49;;;;;;;11.43;7.20;;;16.30;96.70;;;;;;4737405;30;20135;-63
2022/05/07 01:38:16;;;;;;;10.75;6.90;;;16.30;96.40;;;;;;4740214;30;20050;-63
2022/05/07 01:40:43;;;;;;;8.88;6.43;;;16.20;96.00;;;;;;4744821;30;20075;-63
2022/05/07 01:43:11;;;;;;;10.57;6.53;;;16.20;96.20;;;;;;4739769;30;20512;-62
2022/05/07 01:45:38;;;;;;;9.05;6.28;;;16.20;96.00;;;;;;4756881;30;20513;-62
2022/05/07 01:48:11;;;;;;;11.73;6.85;;;16.10;96.10;;;;;;4746524;30;20044;-63
2022/05/07 01:50:43;;;;;;;11.18;7.05;;;16.20;96.00;;;;;;4755173;30;20580;-63
2022/05/07 01:53:14;;;;;;;10.38;6.43;;;16.20;96.20;;;;;;4739430;30;20191;-63
2022/05/07 01:55:46;;;;;;;8.98;6.15;;;16.20;96.30;;;;;;4756464;30;20405;-63
2022/05/07 01:58:16;;;;;;;11.48;6.72;;;16.20;97.40;;;;;;4756362;30;20127;-62
2022/05/07 02:00:43;;;;;;;10.90;6.97;;;16.20;96.60;;;;;;4741396;30;20059;-62
2022/05/07 02:03:11;;;;;;;11.10;6.95;;;16.20;96.50;;;;;;4755412;30;20144;-62
2022/05/07 02:05:38;;;;;;;10.20;6.25;;;16.20;96.60;;;;;;4754873;30;20507;-62
2022/05/07 02:08:07;;;;;;;10.82;7.07;;;16.20;96.40;;;;;;4740323;30;20148;-62
2022/05/07 02:10:34;;;;;;;10.15;6.57;;;16.10;96.50;;;;;;4755012;30;20059;-62
2022/05/07 02:13:02;;;;;;;10.68;6.80;;;16.10;96.60;;;;;;4756438;30;20040;-63
2022/05/07 02:15:31;;;;;;;11.15;7.10;;;16.10;96.90;;;;;;4753738;30;20073;-62
2022/05/07 02:17:59;;;;;;;10.55;6.63;;;16.00;96.20;;;;;;4743437;30;20040;-62
2022/05/07 02:20:26;;;;;;;9.90;6.60;;;16.10;96.40;;;;;;4741577;30;20048;-63
2022/05/07 02:22:57;;;;;;;8.15;5.95;;;16.00;95.90;;;;;;4741715;30;20573;-63
2022/05/07 02:25:25;;;;;;;8.88;5.95;;;15.90;96.00;;;;;;4742048;30;20056;-63
2022/05/07 02:27:58;;;;;;;9.95;5.72;;;15.90;95.90;;;;;;4753808;30;20754;-63
2022/05/07 02:30:26;;;;;;;9.38;5.55;;;15.90;95.90;;;;;;4757674;30;20484;-63
2022/05/07 02:32:58;;;;;;;6.97;5.30;;;15.90;95.90;;;;;;4755761;30;20142;-63
2022/05/07 02:35:26;;;;;;;9.20;5.55;;;15.90;95.20;;;;;;4723481;30;20704;-63
2022/05/07 02:37:54;;;;;;;8.05;5.50;;;15.90;95.50;;;;;;4752754;30;20055;-62
2022/05/07 02:40:21;;;;;;;7.85;5.20;;;15.90;95.70;;;;;;4727387;30;20060;-63
2022/05/07 02:42:49;;;;;;;6.93;4.70;;;15.90;95.00;;;;;;4755477;30;20147;-63
2022/05/07 02:45:18;;;;;;;8.40;5.22;;;15.90;94.90;;;;;;4743110;30;20040;-63
2022/05/07 02:47:49;;;;;;;8.25;5.35;;;15.90;94.60;;;;;;4757856;30;20056;-64
2022/05/07 02:50:18;;;;;;;8.43;4.93;;;15.90;94.60;;;;;;4744701;30;20063;-64
2022/05/07 02:52:45;;;;;;;8.93;5.30;;;15.80;94.60;;;;;;4760524;30;20052;-62
2022/05/07 02:55:13;;;;;;;7.22;5.10;;;15.90;94.90;;;;;;4758551;30;20055;-63
2022/05/07 02:57:45;;;;;;;6.97;5.00;;;15.80;94.70;;;;;;4744704;30;20052;-63
2022/05/07 03:00:15;;;;;;;7.80;4.40;;;15.60;94.50;;;;;;4756470;30;20162;-63
2022/05/07 03:02:42;;;;;;;7.47;4.40;;;15.60;94.70;;;;;;4745020;30;20071;-63
2022/05/07 03:05:09;;;;;;;8.43;4.82;;;15.70;95.00;;;;;;4757440;30;20054;-63
2022/05/07 03:07:36;;;;;;;6.68;4.35;;;15.70;94.80;;;;;;4757938;30;20145;-63
2022/05/07 03:10:10;;;;;;;7.80;4.28;;;15.60;94.60;;;;;;4745170;30;20226;-63
2022/05/07 03:12:39;;;;;;;6.95;4.75;;;15.70;94.50;;;;;;4743887;30;20139;-63
2022/05/07 03:15:07;;;;;;;6.30;4.68;;;15.60;94.50;;;;;;4760183;30;20154;-63
2022/05/07 03:17:36;;;;;;;6.93;4.15;;;15.60;94.70;;;;;;4742858;30;20047;-63
2022/05/07 03:20:09;;;;;;;5.50;3.90;;;15.60;94.80;;;;;;4741999;30;20074;-63
2022/05/07 03:22:40;;;;;;;5.97;3.83;;;15.70;94.60;;;;;;4742574;30;20077;-63
2022/05/07 03:25:08;;;;;;;7.07;4.22;;;15.70;94.60;;;;;;4745680;30;20039;-63
2022/05/07 03:27:35;;;;;;;6.63;4.28;;;15.60;94.90;;;;;;4757186;30;20063;-63
2022/05/07 03:30:07;;;;;;;5.57;3.85;;;15.60;94.90;;;;;;4744259;30;20146;-63
2022/05/07 03:32:46;;;;;;;6.30;4.53;;;15.60;94.80;;;;;;4741840;30;20060;-63
2022/05/07 03:35:13;;;;;;;6.78;5.00;;;15.50;95.20;;;;;;4738953;30;20076;-63
2022/05/07 03:37:40;;;;;;;7.88;4.70;;;15.50;95.00;;;;;;4742342;30;20046;-63
2022/05/07 03:40:10;;;;;;;7.50;4.70;;;15.50;95.10;;;;;;4759046;30;20531;-63
2022/05/07 03:42:37;;;;;;;7.38;4.47;;;15.60;95.30;;;;;;4757209;30;20059;-63
2022/05/07 03:45:05;;;;;;;9.27;4.60;;;15.60;95.30;;;;;;4742327;30;20055;-63
2022/05/07 03:47:35;;;;;;;7.00;4.85;;;15.60;95.20;;;;;;4755996;30;20131;-63
2022/05/07 03:50:04;;;;;;;8.55;4.95;;;15.50;95.40;;;;;;4757355;30;20068;-63
2022/05/07 03:55:18;;;;;;;9.23;5.05;;;15.50;95.80;;;;;;4755873;30;20157;-63
2022/05/07 03:57:46;;;;;;;9.68;5.13;;;15.50;96.10;;;;;;4756826;30;20063;-63
2022/05/07 04:00:13;;;;;;;6.53;5.00;;;15.50;96.10;;;;;;4742905;30;21932;-63
2022/05/07 04:02:41;;;;;;;8.65;5.55;;;15.50;95.80;;;;;;4757346;30;20127;-63
2022/05/07 04:05:23;;;;;;;7.55;4.90;;;15.50;95.90;;;;;;4743660;30;20075;-63
2022/05/07 04:07:54;;;;;;;7.20;5.40;;;15.50;96.00;;;;;;4754155;30;20047;-63
2022/05/07 04:10:23;;;;;;;8.73;5.63;;;15.50;96.00;;;;;;4753146;30;20203;-64
2022/05/07 04:12:51;;;;;;;9.13;5.10;;;15.50;96.20;;;;;;4758838;30;20048;-63
2022/05/07 04:15:24;;;;;;;9.88;5.45;;;15.50;96.30;;;;;;4758532;30;20071;-63
2022/05/07 04:17:56;;;;;;;7.68;5.53;;;15.50;96.60;;;;;;4756563;30;20048;-63
2022/05/07 04:20:24;;;;;;;9.93;5.63;;;15.50;96.60;;;;;;4740235;30;20062;-64
2022/05/07 04:22:57;;;;;;;6.95;4.95;;;15.40;96.90;;;;;;4757363;30;20052;-63
2022/05/07 04:25:25;;;;;;;8.43;5.50;;;15.40;97.00;;;;;;4756372;30;20584;-63
2022/05/07 04:27:53;;;;;;;9.02;5.85;;;15.50;97.20;;;;;;4745941;30;20134;-63
2022/05/07 04:30:23;;;;;;;8.57;5.97;;;15.50;97.10;;;;;;4755963;30;20048;-63
2022/05/07 04:32:51;;;;;;;8.68;6.15;;;15.50;97.10;;;;;;4758059;30;20058;-63
2022/05/07 04:35:19;;;;;;;9.52;5.78;;;15.40;97.20;;;;;;4757110;30;20055;-63
2022/05/07 04:37:47;;;;;;;8.00;5.35;;;15.50;97.60;;;;;;4723088;30;20052;-63
2022/05/07 04:40:15;;;;;;;10.00;6.05;;;15.60;96.90;;;;;;4741503;30;21872;-63
2022/05/07 04:42:44;;;;;;;9.65;6.75;;;15.60;97.20;;;;;;4733225;30;20050;-63
2022/05/07 04:45:13;;;;;;;10.88;6.47;;;15.70;97.30;;;;;;4758855;30;20052;-63
2022/05/07 04:48:03;;;;;;;9.07;6.35;;;15.60;97.30;;;;;;4740623;30;20067;-63
2022/05/07 04:50:33;;;;;;;9.05;5.88;;;15.60;97.70;;;;;;4743185;30;20113;-63
2022/05/07 04:53:17;;;;;;;9.70;6.38;;;15.70;97.60;;;;;;4755188;30;20066;-63
2022/05/07 04:55:45;;;;;;;9.50;6.00;;;15.70;97.30;;;;;;4741746;30;20062;-63
2022/05/07 04:58:14;;;;;;;8.38;5.82;;;15.70;97.90;;;;;;4754069;30;20048;-63
2022/05/07 05:00:43;;;;;;;10.77;6.13;;;15.70;97.80;;;;;;4727582;30;20098;-63
2022/05/07 05:03:13;;;;;;;8.55;6.05;;;15.70;97.60;;;;;;4704298;30;20964;-63
2022/05/07 05:05:46;;;;;;;;;;;15.70;97.80;;;;;;4725034;30;20059;-63
2022/05/07 05:08:24;;;;;;;10.35;5.80;;;15.80;97.60;;;;;;4716423;30;19933;-63
2022/05/07 05:10:53;;;;;;;9.48;5.03;;;15.80;97.30;;;;;;4703214;30;20099;-63
2022/05/07 05:13:22;;;;;;;8.30;5.13;;;15.90;97.20;;;;;;4724016;30;21206;-63
2022/05/07 05:15:52;;;;;;;10.35;5.75;;;15.80;97.20;;;;;;4690784;30;20184;-63
2022/05/07 05:18:42;;;;;;;10.95;6.13;;;15.90;97.40;;;;;;4723908;30;21043;-63
2022/05/07 05:21:11;;;;;;;9.20;5.68;;;15.90;97.40;;;;;;4723897;29;20052;-64
2022/05/07 05:23:51;;;;;;;7.65;5.63;;;16.00;97.10;;;;;;4711270;30;20059;-63
2022/05/07 05:26:19;;;;;;;8.18;5.15;;;16.00;96.80;;;;;;4702028;30;20144;-63
2022/05/07 05:28:51;;;;;;;8.32;5.47;;;16.00;96.90;;;;;;4722595;30;20542;-63
2022/05/07 05:31:19;;;;;;;8.30;5.40;;;16.00;96.80;;;;;;4722568;30;20066;-63
2022/05/07 05:33:55;;;;;;;8.98;5.57;;;16.00;96.80;;;;;;4717315;30;20051;-63
2022/05/07 05:36:30;;;;;;;9.00;5.25;;;16.10;96.20;;;;;;4709976;30;22477;-63
2022/05/07 05:39:01;;;;;;;7.97;5.28;;;16.20;96.40;;;;;;4709668;30;20815;-63
2022/05/07 05:41:30;;;;;;;8.63;5.55;;;16.20;96.10;;;;;;4702149;30;20191;-63
2022/05/07 05:43:58;;;;;;;8.93;5.60;;;16.20;96.10;;;;;;4702916;30;20138;-63
2022/05/07 05:46:28;;;;;;;10.18;5.47;;;16.30;96.10;;;;;;4713976;30;20055;-63
2022/05/07 05:48:55;;;;;;;8.15;5.50;;;16.30;96.10;;;;;;4700734;30;20059;-63
2022/05/07 05:51:22;;;;;;;8.10;5.20;;;16.40;95.40;;;;;;4717908;30;20051;-63
2022/05/07 05:53:51;;;;;;;8.35;5.20;;;16.30;95.60;;;;;;4710013;30;20055;-63
2022/05/07 05:56:18;;;;;;;7.50;5.03;;;16.40;95.40;;;;;;4723536;29;20062;-63
2022/05/07 05:58:50;;;;;;;7.13;4.85;;;16.60;95.80;;;;;;4710881;30;20063;-63
2022/05/07 06:01:22;;;;;;;8.63;4.65;;;16.70;95.60;;;;;;4719471;30;20058;-63
2022/05/07 06:04:00;;;;;;;5.75;4.22;;;16.70;95.10;;;;;;4722917;30;20135;-63
2022/05/07 06:06:27;;;;;;;6.00;3.90;;;16.70;95.00;;;;;;4705166;30;20068;-65
2022/05/07 06:08:56;;;;;;;8.15;4.60;;;16.70;94.30;;;;;;4709101;30;20059;-63
2022/05/07 06:11:23;;;;;;;7.63;4.47;;;16.80;95.20;;;;;;4725046;30;20060;-63
2022/05/07 06:13:53;;;;;;;6.75;4.57;;;16.80;95.20;;;;;;4714838;30;20114;-63
2022/05/07 06:16:23;;;;;;;7.50;4.88;;;16.80;94.40;;;;;;4719927;30;20056;-63
2022/05/07 06:18:52;;;;;;;6.65;3.97;;;16.90;94.80;;;;;;4698545;30;20062;-63
2022/05/07 06:21:19;;;;;;;7.63;4.78;;;17.10;94.70;;;;;;4716158;30;20051;-63
2022/05/07 06:23:46;;;;;;;10.10;4.50;;;17.00;94.60;;;;;;4717030;30;20048;-63
2022/05/07 06:29:08;;;;;;;6.93;4.60;;;17.10;94.10;;;;;;4713412;30;20066;-63
2022/05/07 06:31:38;;;;;;;6.07;4.28;;;17.30;94.20;;;;;;4715201;30;20070;-63
2022/05/07 06:34:10;;;;;;;6.63;4.97;;;17.40;93.50;;;;;;4696156;30;20063;-63
2022/05/07 06:36:46;;;;;;;8.77;4.65;;;17.50;93.60;;;;;;4717665;30;20113;-64
2022/05/07 06:39:15;;;;;;;6.75;4.45;;;17.50;92.70;;;;;;4715841;30;20096;-64
2022/05/07 06:41:43;;;;;;;7.28;4.35;;;17.50;93.00;;;;;;4695498;30;21397;-63
2022/05/07 06:44:10;;;;;;;7.93;4.72;;;17.60;92.70;;;;;;4701802;30;20096;-63
2022/05/07 06:46:39;;;;;;;6.90;4.32;;;17.70;93.10;;;;;;4706106;30;20094;-64
2022/05/07 06:49:08;;;;;;;8.25;5.20;;;17.70;92.50;;;;;;4700441;30;20173;-63
2022/05/07 06:51:46;;;;;;;10.57;4.55;;;17.80;92.20;;;;;;4722115;30;20068;-64
2022/05/07 06:54:14;;;;;;;9.52;4.90;;;17.80;91.60;;;;;;4725561;30;20094;-63
2022/05/07 06:56:41;;;;;;;9.65;4.43;;;18.00;91.90;;;;;;4722941;30;20055;-63
2022/05/07 06:59:09;;;;;;;7.20;4.80;;;18.00;91.60;;;;;;4725598;30;20059;-63
2022/05/07 07:01:37;;;;;;;5.97;4.53;;;18.20;91.00;;;;;;4722330;30;20085;-63
2022/05/07 07:04:05;;;;;;;7.00;4.78;;;18.20;91.20;;;;;;4725468;30;20766;-63
2022/05/07 07:06:32;;;;;;;10.13;5.00;;;18.40;91.00;;;;;;4726363;29;20055;-63
2022/05/07 07:08:59;;;;;;;8.07;4.90;;;18.30;90.60;;;;;;4725100;30;21309;-64
2022/05/07 07:11:26;;;;;;;7.10;5.05;;;18.30;90.90;;;;;;4721997;30;20067;-63
2022/05/07 07:13:53;;;;;;;9.07;5.30;;;18.20;90.70;;;;;;4716253;30;20080;-63
2022/05/07 07:16:20;;;;;;;9.90;4.85;;;18.30;90.90;;;;;;4722622;30;20275;-63
2022/05/07 07:18:48;;;;;;;15.15;5.18;;;18.40;91.10;;;;;;4724178;30;20071;-64
2022/05/07 07:21:16;;;;;;;7.13;4.93;;;18.60;91.10;;;;;;4723350;30;20047;-63
2022/05/07 07:23:43;;;;;;;5.95;4.65;;;18.70;89.60;;;;;;4708756;30;22791;-63
2022/05/07 07:26:10;;;;;;;9.18;5.07;;;18.80;89.80;;;;;;4724015;30;22628;-64
2022/05/07 07:28:37;;;;;;;7.28;4.93;;;18.70;89.90;;;;;;4720624;30;20072;-63
2022/05/07 07:31:05;;;;;;;7.25;5.05;;;18.90;90.00;;;;;;4710603;30;20745;-63
2022/05/07 07:33:35;;;;;;;6.63;4.53;;;18.90;89.30;;;;;;4723354;30;20182;-63
2022/05/07 07:36:02;;;;;;;7.65;5.18;;;19.00;90.10;;;;;;4724953;30;22766;-64
2022/05/07 07:38:29;;;;;;;7.18;4.53;;;19.20;90.00;;;;;;4710597;30;21052;-63
2022/05/07 07:40:57;;;;;;;9.02;4.80;;;19.30;87.10;;;;;;4729552;30;22569;-64
2022/05/07 07:43:24;;;;;;;7.50;4.65;;;19.40;86.60;;;;;;4711453;30;20059;-63
2022/05/07 07:48:39;;;;;;;8.45;4.60;;;19.40;86.00;;;;;;4727934;30;22531;-64
2022/05/07 07:51:09;;;;;;;7.03;3.85;;;19.30;85.10;;;;;;4712331;30;20705;-63
2022/05/07 07:53:38;;;;;;;6.63;4.80;;;19.10;85.90;;;;;;4727827;30;20148;-64
2022/05/07 07:56:07;;;;;;;7.20;4.18;;;19.40;84.20;;;;;;4726231;30;20063;-63
2022/05/07 07:58:35;;;;;;;6.63;4.22;;;19.60;85.20;;;;;;4725423;30;22777;-64
2022/05/07 08:01:02;;;;;;;7.20;4.43;;;19.50;84.20;;;;;;4726898;30;20055;-63
2022/05/07 08:03:29;;;;;;;6.68;4.57;;;19.50;84.50;;;;;;4727165;30;22534;-64
2022/05/07 08:05:57;;;;;;;7.50;4.50;;;19.50;83.90;;;;;;4707834;30;20058;-64
2022/05/07 08:13:56;;;;;;;6.57;4.72;;;20.00;83.50;;;;;;4727116;30;20067;-64
2022/05/07 08:16:25;;;;;;;9.10;4.68;;;19.90;83.70;;;;;;4708740;30;20063;-64
2022/05/07 08:18:52;;;;;;;6.40;4.43;;;20.00;83.20;;;;;;4710898;30;20058;-64
2022/05/07 08:21:20;;;;;;;6.47;3.75;;;19.90;80.50;;;;;;4727903;30;20059;-64
2022/05/07 08:23:47;;;;;;;6.00;4.80;;;19.80;81.00;;;;;;4725471;30;20049;-64
2022/05/07 08:26:14;;;;;;;6.75;4.20;;;19.80;78.30;;;;;;4725405;30;20424;-63
2022/05/07 08:28:42;;;;;;;6.38;4.28;;;19.80;81.10;;;;;;4727399;30;20791;-63
2022/05/07 08:31:13;;;;;;;5.60;3.88;;;19.90;81.70;;;;;;4726859;30;20144;-64
2022/05/07 08:33:41;;;;;;;6.40;4.23;;;19.90;78.50;;;;;;4719237;30;20230;-63
2022/05/07 08:36:10;;;;;;;8.50;4.78;;;20.00;80.50;;;;;;4717954;30;20057;-64
2022/05/07 08:38:38;;;;;;;5.65;4.35;;;20.20;82.30;;;;;;4726781;30;20138;-64
2022/05/07 08:41:05;;;;;;;5.13;3.80;;;20.00;78.40;;;;;;4710352;30;20055;-64
2022/05/07 08:43:37;;;;;;;5.03;3.17;;;20.10;80.70;;;;;;4710140;30;20062;-64
2022/05/07 08:46:22;;;;;;;5.07;3.95;;;20.00;76.30;;;;;;4699427;30;20060;-64
2022/05/07 08:48:51;;;;;;;8.20;3.50;;;19.90;75.40;;;;;;4715853;30;20805;-64
2022/05/07 08:51:21;;;;;;;6.05;3.28;;;19.90;74.90;;;;;;4725841;30;22435;-64
2022/05/07 08:53:49;;;;;;;4.75;3.28;;;19.90;76.40;;;;;;4723039;30;20101;-64
2022/05/07 08:56:17;;;;;;;7.43;3.40;;;19.90;74.80;;;;;;4725100;30;24010;-64
2022/05/07 08:58:52;;;;;;;5.35;3.22;;;19.90;75.50;;;;;;4710012;30;20063;-65
2022/05/07 09:01:21;;;;;;;5.97;3.35;;;19.80;74.00;;;;;;4725630;30;20051;-64
2022/05/07 09:03:49;;;;;;;5.95;3.10;;;19.70;72.50;;;;;;4726611;30;20136;-64
2022/05/07 09:06:19;;;;;;;6.45;3.03;;;19.80;74.10;;;;;;4724416;30;20055;-64
2022/05/07 09:08:47;;;;;;;4.72;2.78;;;19.80;74.50;;;;;;4724643;30;22478;-64
2022/05/07 09:11:17;;;;;;;4.40;3.17;;;19.90;73.50;;;;;;4711116;30;22794;-64
2022/05/07 09:13:46;;;;;;;4.00;3.30;;;19.90;74.70;;;;;;4720131;30;21047;-64
2022/05/07 09:16:14;;;;;;;6.55;3.00;;;20.10;74.90;;;;;;4719532;30;20146;-63
2022/05/07 09:18:50;;;;;;;8.07;2.92;;;20.30;72.90;;;;;;4721260;30;20139;-63
2022/05/07 09:21:25;;;;;;;7.00;3.13;;;20.30;72.70;;;;;;4703598;30;22739;-64
2022/05/07 09:23:55;;;;;;;4.25;2.90;;;20.40;72.70;;;;;;4722583;30;20048;-64
2022/05/07 09:26:30;;;;;;;5.10;2.70;;;20.30;71.60;;;;;;4697901;30;20051;-64
2022/05/07 09:29:00;;;;;;;5.53;3.03;;;20.30;72.30;;;;;;4724651;30;20059;-64
2022/05/07 09:31:30;;;;;;;4.28;2.33;;;20.30;71.20;;;;;;4723317;30;20090;-64
2022/05/07 09:36:45;;;;;;;4.45;3.03;;;20.40;71.90;;;;;;4723090;30;20067;-64
2022/05/07 09:39:14;;;;;;;5.68;2.83;;;20.40;69.90;;;;;;4704566;30;20071;-63
2022/05/07 09:41:45;;;;;;;3.17;2.50;;;20.30;71.40;;;;;;4725185;30;20178;-64
2022/05/07 09:44:12;;;;;;;3.13;2.20;;;20.40;69.50;;;;;;4718992;30;22614;-64
2022/05/07 09:46:40;;;;;;;5.22;2.55;;;20.50;68.80;;;;;;4721932;30;20059;-64
2022/05/07 09:49:08;;;;;;;4.22;3.15;;;20.60;69.90;;;;;;4722017;30;20185;-64
2022/05/07 09:51:35;;;;;;;6.80;3.22;;;20.70;68.60;;;;;;4722372;30;20063;-65
2022/05/07 09:59:38;;;;;;;6.20;2.90;;;21.20;68.60;;;;;;4723449;30;20052;-64
2022/05/07 10:02:23;;;;;;;4.60;3.13;;;21.20;68.60;;;;;;4723000;30;20609;-65
2022/05/07 10:05:13;;;;;;;5.85;3.20;;;21.00;69.00;;;;;;4714032;30;20055;-64
2022/05/07 10:07:48;;;;;;;5.60;3.85;;;21.20;66.90;;;;;;4701331;30;20071;-64
2022/05/07 10:10:29;;;;;;;5.63;3.10;;;21.50;70.00;;;;;;4723159;30;20063;-63
2022/05/07 10:13:01;;;;;;;5.07;3.10;;;21.60;69.00;;;;;;4723776;30;22523;-64
2022/05/07 10:15:28;;;;;;;5.03;2.97;;;21.80;67.90;;;;;;4699882;30;21061;-64
2022/05/07 10:18:03;;;;;;;5.72;2.95;;;21.80;66.70;;;;;;4705812;30;20677;-64
2022/05/07 10:20:44;;;;;;;5.45;3.05;;;21.70;66.80;;;;;;4724414;30;20044;-64
2022/05/07 10:23:13;;;;;;;7.75;3.40;;;21.60;67.60;;;;;;4722499;30;20631;-65
2022/05/07 10:25:56;;;;;;;3.58;2.78;;;21.50;67.20;;;;;;4725093;30;20051;-65
2022/05/07 10:28:38;;;;;;;5.78;3.28;;;21.60;67.10;;;;;;4726673;30;20052;-66
2022/05/07 10:31:22;;;;;;;5.63;2.95;;;21.40;66.40;;;;;;4717650;30;20070;-65
2022/05/07 10:33:51;;;;;;;7.78;3.03;;;21.50;67.40;;;;;;4707891;30;22809;-63
2022/05/07 10:36:19;;;;;;;6.25;2.75;;;21.50;66.70;;;;;;4721522;30;20063;-64
2022/05/07 10:38:47;;;;;;;4.28;2.97;;;21.60;66.10;;;;;;4724289;30;20063;-65
2022/05/07 10:41:16;;;;;;;6.90;2.90;;;21.60;65.00;;;;;;4707167;30;20055;-64
2022/05/07 10:43:59;;;;;;;4.00;2.90;;;21.70;65.30;;;;;;4713870;30;20059;-65
2022/05/07 10:46:38;;;;;;;5.28;3.50;;;21.60;64.80;;;;;;4709042;30;20056;-64
2022/05/07 10:49:06;;;;;;;4.55;3.05;;;21.50;66.50;;;;;;4714606;30;20771;-65
2022/05/07 10:51:50;;;;;;;6.20;4.00;;;21.50;66.10;;;;;;4721400;30;20055;-64
2022/05/07 10:54:23;;;;;;;3.63;2.67;;;21.60;64.80;;;;;;4699711;30;20789;-64
2022/05/07 10:56:52;;;;;;;;;;;21.60;65.90;;;;;;4705013;30;20140;-64
2022/05/07 10:59:21;;;;;;;3.67;2.40;;;21.60;65.10;;;;;;4723551;30;19934;-65
2022/05/07 11:01:49;;;;;;;6.28;2.78;;;21.70;66.90;;;;;;4722275;30;20047;-64
2022/05/07 11:04:22;;;;;;;6.55;2.65;;;21.90;64.50;;;;;;4724862;30;20058;-64
2022/05/07 11:06:54;;;;;;;4.05;2.42;;;21.90;63.90;;;;;;4717040;30;22562;-64
2022/05/07 11:09:23;;;;;;;6.50;2.55;;;22.10;63.10;;;;;;4711250;30;20066;-64
2022/05/07 11:11:54;;;;;;;4.40;1.90;;;22.30;62.30;;;;;;4721999;30;22523;-64
2022/05/07 11:14:25;;;;;;;6.40;2.75;;;22.30;59.80;;;;;;4726258;30;20060;-66
2022/05/07 11:16:53;;;;;;;3.53;2.08;;;22.50;62.10;;;;;;4726388;30;20088;-64
2022/05/07 11:19:27;;;;;;;4.25;2.13;;;22.30;59.10;;;;;;4728255;30;22527;-65
2022/05/07 11:21:56;;;;;;;4.63;1.83;;;22.30;59.80;;;;;;4728025;30;22439;-65
2022/05/07 11:24:26;;;;;;;3.00;1.60;;;22.30;60.10;;;;;;4726058;30;20047;-64
2022/05/07 11:26:58;;;;;;;3.65;2.38;;;22.20;59.70;;;;;;4723816;30;20051;-65
2022/05/07 11:29:27;;;;;;;4.72;2.20;;;22.20;58.40;;;;;;4727544;30;22450;-65
2022/05/07 11:32:09;;;;;;;3.45;2.20;;;22.20;59.60;;;;;;4729121;30;20059;-65
2022/05/07 11:34:41;;;;;;;5.95;1.70;;;22.10;58.60;;;;;;4710521;30;20056;-65
2022/05/07 11:37:11;;;;;;;5.70;2.33;;;22.20;59.40;;;;;;4698421;30;22485;-65
2022/05/07 11:39:58;;;;;;;4.70;1.95;;;22.30;59.20;;;;;;4726726;30;20052;-65
2022/05/07 11:42:35;;;;;;;4.55;2.35;;;22.70;56.70;;;;;;4725063;30;21355;-65
2022/05/07 11:45:26;;;;;;;3.20;1.90;;;22.80;59.80;;;;;;4726411;30;20153;-64
2022/05/07 11:48:03;;;;;;;5.15;1.85;;;22.90;57.40;;;;;;4725233;30;20165;-64
2022/05/07 11:50:32;;;;;;;3.55;1.90;;;23.30;59.20;;;;;;4711676;30;20070;-64
2022/05/07 11:53:30;;;;;;;2.28;1.35;;;23.40;57.80;;;;;;4727160;30;20051;-64
2022/05/07 11:56:09;;;;;;;3.63;1.48;;;23.40;56.50;;;;;;4711006;30;20086;-64
2022/05/07 11:58:41;;;;;;;4.55;2.15;;;23.30;54.60;;;;;;4720554;30;20066;-64
2022/05/07 12:01:19;;;;;;;5.85;1.90;;;23.30;56.80;;;;;;4725520;30;20051;-65
2022/05/07 12:03:47;;;;;;;3.80;1.98;;;23.10;56.10;;;;;;4712898;30;22773;-65
2022/05/07 12:06:32;;;;;;;6.78;1.60;;;23.20;55.60;;;;;;4723839;30;20055;-64
2022/05/07 12:09:10;;;;;;;3.65;1.83;;;23.10;54.60;;;;;;4702665;30;20663;-64
2022/05/07 12:11:37;;;;;;;3.55;2.10;;;23.20;54.30;;;;;;4707529;30;20064;-64
2022/05/07 12:14:04;;;;;;;3.28;1.92;;;23.30;54.40;;;;;;4710230;30;20068;-64
2022/05/07 12:19:35;;;;;;;2.15;1.55;;;23.60;56.90;;;;;;4695674;30;20091;-64
2022/05/07 12:30:37;;;;;;;4.57;1.77;;;23.20;51.90;;;;;;4710072;30;20060;-64
2022/05/07 12:33:04;;;;;;;4.63;1.83;;;23.10;52.40;;;;;;4710256;30;20051;-65
2022/05/07 12:35:31;;;;;;;5.40;1.63;;;23.10;55.60;;;;;;4723235;30;20056;-64
2022/05/07 12:37:58;;;;;;;4.45;2.03;;;23.20;54.40;;;;;;4706827;30;20152;-65
2022/05/07 12:40:25;;;;;;;2.50;1.80;;;23.40;54.20;;;;;;4721025;30;20048;-64
2022/05/07 12:42:53;;;;;;;5.13;2.15;;;23.60;56.10;;;;;;4719791;30;22645;-65
2022/05/07 12:45:22;;;;;;;2.10;1.70;;;23.40;54.50;;;;;;4700018;30;20595;-65
2022/05/07 12:47:49;;;;;;;5.97;1.95;;;23.40;52.60;;;;;;4709353;30;20174;-65
2022/05/07 12:50:16;;;;;;;2.72;1.80;;;23.60;54.20;;;;;;4706698;30;20094;-64
2022/05/07 12:52:43;;;;;;;6.82;2.30;;;23.70;54.50;;;;;;4700038;30;22857;-65
2022/05/07 12:55:11;;;;;;;2.90;1.83;;;23.80;54.00;;;;;;4701206;30;20052;-63
2022/05/07 12:57:38;;;;;;;4.13;2.10;;;23.80;53.10;;;;;;4700459;30;20060;-64
2022/05/07 13:00:06;;;;;;;3.72;1.55;;;23.80;55.00;;;;;;4708141;30;20087;-64
2022/05/07 13:02:37;;;;;;;7.57;2.00;;;23.70;55.10;;;;;;4688117;30;20116;-65
2022/05/07 13:05:05;;;;;;;3.95;2.20;;;23.70;52.30;;;;;;4709906;30;20114;-64
2022/05/07 13:07:32;;;;;;;4.75;1.92;;;23.80;54.60;;;;;;4720824;30;20067;-63
2022/05/07 13:09:59;;;;;;;3.05;1.75;;;23.80;51.50;;;;;;4707167;30;20075;-65
2022/05/07 13:12:26;;;;;;;2.60;1.58;;;24.00;52.60;;;;;;4712333;30;20527;-65
2022/05/07 13:14:57;;;;;;;3.78;2.42;;;23.90;51.70;;;;;;4724173;30;20055;-64
2022/05/07 13:17:25;;;;;;;4.18;2.50;;;23.80;54.00;;;;;;4702214;30;20067;-64
2022/05/07 13:19:52;;;;;;;3.42;1.98;;;23.80;52.40;;;;;;4723347;30;22682;-65
2022/05/07 13:22:19;;;;;;;5.28;2.08;;;23.90;53.00;;;;;;4727090;30;20064;-64
2022/05/07 13:24:46;;;;;;;4.57;1.98;;;24.00;52.70;;;;;;4703046;30;20091;-64
2022/05/07 13:27:15;;;;;;;4.90;1.95;;;23.90;56.00;;;;;;4711388;30;20405;-64
2022/05/07 13:29:42;;;;;;;5.15;2.30;;;24.00;54.90;;;;;;4726125;30;20055;-65
2022/05/07 13:32:09;;;;;;;4.20;2.58;;;23.90;53.90;;;;;;4717274;30;20060;-63
2022/05/07 13:34:36;;;;;;;3.03;1.95;;;24.00;54.60;;;;;;4715286;30;20143;-64
2022/05/07 13:37:03;;;;;;;5.03;2.40;;;23.90;53.80;;;;;;4726118;30;22465;-64
2022/05/07 13:39:31;;;;;;;4.20;2.03;;;23.90;53.60;;;;;;4724961;30;20094;-64